Flight Track Log - Related Links

Times and Time Zones

All times are in EST time to prevent confusion due to time zone crossing. See the N884FT flight status page for this flight to view local times or setup timezone preferences in your user account.

Time Position Orientation Groundspeed Altitude Reporting Facility
EST Latitude Longitude Course Direction KTS MPH feet Rate Location/Type
Sun 09:33:15 AM 28.1000 -80.6667 270° West 90 104 600  Level Orlando TRACON
Sun 09:34:27 AM 28.1000 -80.7000 270° West 107 123 1,800 727 Climbing Orlando TRACON
Sun 09:35:27 AM 28.1000 -80.7333 270° West 112 129 2,200 350 Climbing Orlando TRACON
Sun 09:36:27 AM 28.0833 -80.7667 240° Southwest 123 142 2,500 500 Climbing Orlando TRACON
Sun 09:37:27 AM 28.0833 -80.8000 270° West 113 130 3,200 750 Climbing Orlando TRACON
Sun 09:38:27 AM 28.0833 -80.8500 270° West 104 120 4,000 750 Climbing Orlando TRACON
Sun 09:39:27 AM 28.0833 -80.8833 270° West 108 124 4,700 600 Climbing Orlando TRACON
Sun 09:40:27 AM 28.0833 -80.9167 270° West 108 124 5,200 250 Climbing Orlando TRACON
Sun 09:41:27 AM 28.0833 -80.9500 270° West 130 150 5,200 -50 Level Orlando TRACON
Sun 09:42:27 AM 28.0833 -81.0000 270° West 138 159 5,100 -50 Descending Orlando TRACON
Sun 09:43:28 AM 28.0833 -81.0333 270° West 135 155 5,100 236 Level Orlando TRACON
Sun 09:44:34 AM 28.0833 -81.0833 270° West 121 139 5,600 429 Climbing Orlando TRACON
Sun 09:45:34 AM 28.1000 -81.1167 300° West 125 144 6,000 263 Climbing Orlando TRACON
Sun 09:46:28 AM 28.1000 -81.1500 270° West 135 155 6,100 53 Climbing Orlando TRACON
Sun 09:47:28 AM 28.1000 -81.2000 270° West 146 168 6,100  Level Orlando TRACON
Sun 09:48:28 AM 28.0833 -81.2333 240° Southwest 147 169 6,100  Level Orlando TRACON
Sun 09:49:28 AM 28.0667 -81.2833 249° West 144 166 6,100  Level Orlando TRACON
Sun 09:50:28 AM 28.0667 -81.3167 270° West 147 169 6,100  Level Orlando TRACON
Sun 09:51:28 AM 28.0500 -81.3667 249° West 148 170 6,100  Level Orlando TRACON
Sun 09:52:28 AM 28.0500 -81.4167 270° West 146 168 6,100  Level Orlando TRACON
Sun 09:53:29 AM 28.0500 -81.4667 270° West 147 169 6,100 50 Level Orlando TRACON
Sun 09:54:29 AM 28.0500 -81.5000 270° West 149 171 6,200  Climbing Orlando TRACON
Sun 09:55:35 AM 28.0500 -81.5500 270° West 142 163 6,100 -37 Descending Orlando TRACON
Sun 09:57:13 AM 28.0333 -81.6333 257° West 134 154 6,100 75 Level Tampa TRACON
Sun 09:58:14 AM 28.0333 -81.6667 270° West 135 155 6,300  Climbing Tampa TRACON
Sun 09:59:13 AM 28.0167 -81.7167 249° West 138 159 6,100 -105 Descending Tampa TRACON
Sun 10:00:08 AM 28.0167 -81.7500 270° West 135 155 6,100  Level Tampa TRACON
Sun 10:01:08 AM 28.0167 -81.7833 270° West 133 153 6,100 50 Level Tampa TRACON
Sun 10:02:08 AM 28.0167 -81.8333 270° West 135 155 6,200  Climbing Tampa TRACON
Sun 10:03:02 AM 28.0000 -81.8667 240° Southwest 140 161 6,100 -53 Descending Tampa TRACON
Sun 10:04:02 AM 28.0000 -81.9167 270° West 138 159 6,100 50 Level Tampa TRACON
Sun 10:05:02 AM 27.9833 -81.9500 240° Southwest 136 157 6,200  Climbing Tampa TRACON
Sun 10:06:08 AM 27.9833 -82.0000 270° West 138 159 6,100 -45 Descending Tampa TRACON
Sun 10:07:14 AM 27.9833 -82.0500 270° West 138 159 6,100  Level Tampa TRACON
Sun 10:08:08 AM 27.9833 -82.0833 270° West 137 158 6,100  Level Tampa TRACON
Sun 10:09:08 AM 27.9667 -82.1333 249° West 138 159 6,100 50 Level Tampa TRACON
Sun 10:10:08 AM 27.9667 -82.1667 270° West 140 161 6,200  Climbing Tampa TRACON
Sun 10:11:03 AM 27.9667 -82.2167 270° West 138 159 6,100 -500 Descending Tampa TRACON
Sun 10:12:08 AM 27.9333 -82.2500 221° Southwest 149 171 5,200 -476 Descending Tampa TRACON
Sun 10:13:09 AM 27.9167 -82.3000 249° West 134 154 5,100 -50 Descending Tampa TRACON
Sun 10:14:08 AM 27.9000 -82.3333 241° Southwest 135 155 5,100 -100 Level Tampa TRACON
Sun 10:15:09 AM 27.8667 -82.3667 221° Southwest 145 167 4,900 -496 Descending Tampa TRACON
Sun 10:16:09 AM 27.8500 -82.4000 241° Southwest 144 166 4,100 -900 Descending Tampa TRACON
Sun 10:17:09 AM 27.8167 -82.4333 221° Southwest 162 186 3,100 -700 Descending Tampa TRACON
Sun 10:18:09 AM 27.7667 -82.4500 196° South 148 170 2,700 -200 Descending Tampa TRACON
Sun 10:19:09 AM 27.7500 -82.4833 241° Southwest 144 166 2,700 50 Level Tampa TRACON
Sun 10:20:09 AM 27.7667 -82.5000 318° Northwest 127 146 2,800  Climbing Tampa TRACON
Sun 10:21:09 AM 27.7833 -82.5333 299° West 127 146 2,700 -53 Descending Tampa TRACON
Sun 10:22:03 AM 27.8167 -82.5333 360° North 121 139 2,700  Level Tampa TRACON
Sun 10:23:03 AM 27.8500 -82.5333 360° North 114 131 2,700 -350 Level Tampa TRACON
Sun 10:24:03 AM 27.8833 -82.5333 360° North 102 117 2,000 -650 Descending Tampa TRACON
Sun 10:25:03 AM 27.9167 -82.5333 360° North 101 116 1,400 -619 Descending Tampa TRACON
Sun 10:26:09 AM 27.9333 -82.5333 360° North 96 110 700 -636 Descending Tampa TRACON

Login

Don't have an account? Register now (free) for customized features, flight alerts, and more!